Time;durP1;ratioP1;P1;durP2;ratioP2;P2;SDS_P1;SDS_P2;PMS_P1;PMS_P2;Temp;Humidity;BMP_temperature;BMP_pressure;BME280_temperature;BME280_humidity;BME280_pressure;Samples;Min_cycle;Max_cycle;Signal;HPM_P1;HPM_P2
2023/09/01 00:01:18;;;;;;;15.90;9.95;;;;;;;16.03;100.00;99933.81;5012180;28;20104;-45
2023/09/01 00:03:44;;;;;;;11.73;7.60;;;;;;;16.02;100.00;99929.47;5013458;28;20150;-43
2023/09/01 00:06:13;;;;;;;10.52;7.93;;;;;;;16.00;100.00;99929.84;5012748;28;20099;-43
2023/09/01 00:08:41;;;;;;;15.02;9.77;;;;;;;16.02;100.00;99930.22;5013996;28;20049;-42
2023/09/01 00:11:08;;;;;;;18.25;10.48;;;;;;;16.03;100.00;99936.63;5011838;28;20045;-43
2023/09/01 00:13:35;;;;;;;14.25;9.50;;;;;;;16.04;100.00;99933.44;5013011;28;20049;-43
2023/09/01 00:16:02;;;;;;;12.55;8.85;;;;;;;16.03;100.00;99931.84;5012968;28;20045;-44
2023/09/01 00:18:30;;;;;;;15.88;11.05;;;;;;;16.02;100.00;99927.44;5012335;28;20046;-43
2023/09/01 00:20:58;;;;;;;17.35;11.27;;;;;;;16.02;100.00;99924.66;5011357;28;20049;-45
2023/09/01 00:23:26;;;;;;;16.15;10.93;;;;;;;16.02;100.00;99935.81;5008511;28;20243;-43
2023/09/01 00:25:56;;;;;;;12.20;8.73;;;;;;;16.03;100.00;99934.63;5012256;28;20045;-44
2023/09/01 00:28:23;;;;;;;16.98;10.65;;;;;;;16.04;100.00;99938.22;5008526;28;20112;-42
2023/09/01 00:30:56;;;;;;;16.17;11.15;;;;;;;16.04;100.00;99939.03;5009357;28;20048;-45
2023/09/01 00:33:25;;;;;;;16.67;11.10;;;;;;;16.03;100.00;99934.63;5012308;28;20037;-45
2023/09/01 00:35:53;;;;;;;13.57;9.52;;;;;;;16.03;100.00;99929.03;5008104;28;20400;-43
2023/09/01 00:38:20;;;;;;;19.63;12.00;;;;;;;16.03;100.00;99933.81;5011071;28;20052;-44
2023/09/01 00:40:48;;;;;;;17.50;11.77;;;;;;;16.03;100.00;99929.03;5008300;28;20049;-48
2023/09/01 00:43:16;;;;;;;22.00;14.35;;;;;;;16.04;100.00;99933.44;5010991;28;20037;-44
2023/09/01 00:45:43;;;;;;;26.55;15.80;;;;;;;16.03;100.00;99931.84;5006684;28;20052;-44
2023/09/01 00:48:12;;;;;;;25.35;16.98;;;;;;;16.04;100.00;99938.22;5010933;28;20149;-43
2023/09/01 00:50:41;;;;;;;20.98;13.38;;;;;;;16.03;100.00;99931.84;5009763;28;20049;-43
2023/09/01 00:53:08;;;;;;;20.95;13.32;;;;;;;16.04;100.00;99938.22;5008135;28;20042;-43
2023/09/01 00:55:37;;;;;;;21.60;12.73;;;;;;;16.04;100.00;99939.03;5012620;28;20496;-42
2023/09/01 00:58:04;;;;;;;22.25;12.88;;;;;;;16.02;100.00;99933.03;5001872;28;20033;-45
2023/09/01 01:00:32;;;;;;;16.65;11.15;;;;;;;16.01;100.00;99939.03;5019398;28;20045;-49
2023/09/01 01:03:05;;;;;;;22.25;12.45;;;;;;;15.98;100.00;99934.25;5011655;28;20050;-43
2023/09/01 01:06:09;;;;;;;21.85;11.95;;;;;;;15.95;100.00;99935.84;5012462;28;20042;-45
2023/09/01 01:08:39;;;;;;;19.38;12.48;;;;;;;15.92;100.00;99925.47;5001631;28;20141;-44
2023/09/01 01:11:11;;;;;;;24.50;13.63;;;;;;;15.91;100.00;99940.66;5011326;28;20145;-44
2023/09/01 01:13:44;;;;;;;21.13;13.48;;;;;;;15.90;100.00;99941.81;5011592;28;20045;-43
2023/09/01 01:16:13;;;;;;;23.30;14.02;;;;;;;15.92;100.00;99930.25;5024295;28;20050;-44
2023/09/01 01:18:43;;;;;;;25.42;13.30;;;;;;;15.91;100.00;99929.47;5012628;28;20077;-43
2023/09/01 01:21:26;;;;;;;26.70;14.35;;;;;;;15.90;100.00;99941.81;5010082;28;20053;-44
2023/09/01 01:23:54;;;;;;;26.88;15.13;;;;;;;15.88;100.00;99935.84;5009515;28;20050;-44
2023/09/01 01:26:23;;;;;;;26.67;16.25;;;;;;;15.89;100.00;99942.22;5011457;28;20042;-45
2023/09/01 01:28:50;;;;;;;29.05;14.30;;;;;;;15.90;100.00;99941.81;5009487;28;20056;-44
2023/09/01 01:31:18;;;;;;;25.73;14.30;;;;;;;15.91;100.00;99942.63;4989248;28;20431;-44
2023/09/01 01:34:10;;;;;;;31.20;16.00;;;;;;;15.90;100.00;99939.03;5009713;28;20116;-43
2023/09/01 01:36:53;;;;;;;26.17;15.20;;;;;;;15.87;100.00;99934.25;5010430;28;20065;-45
2023/09/01 01:39:28;;;;;;;28.02;14.60;;;;;;;15.85;100.00;99936.66;5004826;28;20049;-44
2023/09/01 01:41:59;;;;;;;28.42;17.27;;;;;;;15.87;100.00;99936.25;5009195;28;20054;-43
2023/09/01 01:44:50;;;;;;;27.75;15.98;;;;;;;15.86;100.00;99935.44;5008876;28;20065;-43
2023/09/01 01:47:20;;;;;;;28.90;15.00;;;;;;;15.87;100.00;99945.41;5002562;28;20373;-43
2023/09/01 01:49:47;;;;;;;28.30;15.63;;;;;;;15.86;100.00;99949.38;5010393;28;20041;-45
2023/09/01 01:52:14;;;;;;;29.77;14.60;;;;;;;15.84;100.00;99943.41;5007831;28;20042;-44
2023/09/01 01:54:41;;;;;;;27.38;14.43;;;;;;;15.86;100.00;99943.03;5011289;28;20137;-44
2023/09/01 01:57:10;;;;;;;29.02;13.65;;;;;;;15.86;100.00;99943.81;5009955;28;20100;-44
2023/09/01 01:59:37;;;;;;;30.75;15.57;;;;;;;15.83;100.00;99947.44;5011052;28;20053;-43
2023/09/01 02:02:05;;;;;;;32.33;16.48;;;;;;;15.81;100.00;99952.59;5011515;28;20587;-43
2023/09/01 02:04:32;;;;;;;28.40;15.18;;;;;;;15.80;100.00;99943.44;5007721;28;20037;-48
2023/09/01 02:06:59;;;;;;;33.20;16.23;;;;;;;15.81;100.00;99947.00;4991097;28;20041;-52
2023/09/01 02:09:26;;;;;;;32.05;14.98;;;;;;;15.81;100.00;99944.22;5009107;28;20149;-45
2023/09/01 02:11:54;;;;;;;31.10;14.52;;;;;;;15.77;100.00;99947.03;5010637;28;20069;-46
2023/09/01 02:14:21;;;;;;;30.67;15.82;;;;;;;15.75;100.00;99943.03;5008362;28;20507;-44
2023/09/01 02:16:49;;;;;;;31.27;16.10;;;;;;;15.74;100.00;99947.03;5009545;28;20042;-43
2023/09/01 02:19:16;;;;;;;37.55;16.10;;;;;;;15.72;100.00;99938.25;5009960;28;20049;-44
2023/09/01 02:21:44;;;;;;;36.88;16.75;;;;;;;15.71;100.00;99945.81;5010684;28;20053;-45
2023/09/01 02:24:11;;;;;;;33.72;15.05;;;;;;;15.71;100.00;99945.03;5010355;28;20042;-45
2023/09/01 02:26:38;;;;;;;37.38;17.88;;;;;;;15.69;100.00;99953.81;5013404;28;20050;-44
2023/09/01 02:29:05;;;;;;;32.10;14.30;;;;;;;15.68;100.00;99943.81;5009384;28;20415;-47
2023/09/01 02:31:32;;;;;;;34.75;16.20;;;;;;;15.67;100.00;99955.41;5011080;28;20052;-43
2023/09/01 02:33:59;;;;;;;34.78;15.75;;;;;;;15.66;100.00;99956.59;5009077;28;20045;-44
2023/09/01 02:36:28;;;;;;;30.65;15.32;;;;;;;15.65;100.00;99946.59;5009928;28;20484;-44
2023/09/01 02:38:56;;;;;;;34.28;14.55;;;;;;;15.63;100.00;99952.59;5008086;28;20061;-43
2023/09/01 02:41:23;;;;;;;36.33;16.63;;;;;;;15.60;100.00;99949.78;5010277;28;20439;-44
2023/09/01 02:43:52;;;;;;;38.88;16.75;;;;;;;15.60;100.00;99947.00;5008393;28;20075;-44
2023/09/01 02:46:20;;;;;;;33.40;15.88;;;;;;;15.62;100.00;99955.81;5008678;28;20069;-43
2023/09/01 02:48:47;;;;;;;34.45;15.00;;;;;;;15.64;100.00;99956.19;5009305;28;20415;-44
2023/09/01 02:51:14;;;;;;;35.88;18.88;;;;;;;15.63;100.00;99963.75;5010495;28;20096;-44
2023/09/01 02:53:41;;;;;;;34.25;15.45;;;;;;;15.63;100.00;99963.75;5009093;28;20049;-45
2023/09/01 02:56:08;;;;;;;40.88;17.38;;;;;;;15.63;100.00;99963.75;5012644;28;20471;-46
2023/09/01 02:58:36;;;;;;;34.70;17.17;;;;;;;15.64;100.00;99953.41;5012593;28;20058;-47
2023/09/01 03:01:07;;;;;;;37.83;17.10;;;;;;;15.67;100.00;99958.19;5042985;23;20395;-43
2023/09/01 03:03:40;;;;;;;38.10;16.33;;;;;;;15.67;100.00;99960.97;4992321;28;20046;-45
2023/09/01 03:06:11;;;;;;;45.42;18.08;;;;;;;15.68;100.00;99955.00;4996377;28;20056;-45
2023/09/01 03:08:39;;;;;;;46.75;20.48;;;;;;;15.68;100.00;99965.34;5006902;28;20529;-43
2023/09/01 03:11:06;;;;;;;38.72;16.85;;;;;;;15.67;100.00;99960.97;5007365;28;20049;-45
2023/09/01 03:13:33;;;;;;;40.22;16.58;;;;;;;15.66;100.00;99970.53;5013490;28;20076;-44
2023/09/01 03:16:00;;;;;;;36.42;15.93;;;;;;;15.67;100.00;99969.34;5012256;28;20055;-43
2023/09/01 03:18:27;;;;;;;36.50;17.17;;;;;;;15.68;100.00;99970.94;5013271;28;20390;-44
2023/09/01 03:21:07;;;;;;;35.88;16.02;;;;;;;15.67;100.00;99969.34;5014374;28;20080;-45
2023/09/01 03:23:34;;;;;;;46.83;17.58;;;;;;;15.68;100.00;99976.50;5014278;28;20132;-47
2023/09/01 03:26:03;;;;;;;36.55;16.13;;;;;;;15.67;100.00;99984.06;5013895;28;20045;-45
2023/09/01 03:28:30;;;;;;;43.10;18.55;;;;;;;15.66;100.00;99981.69;5014068;28;20100;-44
2023/09/01 03:30:58;;;;;;;42.95;17.50;;;;;;;15.62;100.00;99978.13;5013347;28;20401;-44
2023/09/01 03:33:27;;;;;;;36.03;14.88;;;;;;;15.59;100.00;99981.69;5017491;28;20046;-45
2023/09/01 03:35:54;;;;;;;42.95;18.15;;;;;;;15.62;100.00;99983.69;5011962;28;20046;-43
2023/09/01 03:38:20;;;;;;;48.05;21.05;;;;;;;15.62;100.00;99989.28;5013752;28;20065;-49
2023/09/01 03:40:48;;;;;;;42.75;19.42;;;;;;;15.59;100.00;99992.88;5001383;28;20046;-43
2023/09/01 03:43:14;;;;;;;45.45;20.35;;;;;;;15.57;100.00;99996.03;5012780;28;20042;-44
2023/09/01 03:45:44;;;;;;;50.95;19.35;;;;;;;15.55;100.00;99992.84;5013849;28;20046;-45
2023/09/01 03:48:11;;;;;;;46.72;19.90;;;;;;;15.53;100.00;99995.25;5012989;28;20046;-45
2023/09/01 03:50:38;;;;;;;50.28;18.45;;;;;;;15.53;100.00;99994.44;5014400;28;20049;-44
2023/09/01 03:53:05;;;;;;;60.72;20.92;;;;;;;15.50;100.00;99987.66;5013160;28;20758;-44
2023/09/01 03:55:32;;;;;;;49.63;17.30;;;;;;;15.49;100.00;99996.44;5013535;28;20041;-44
2023/09/01 03:58:00;;;;;;;54.42;19.55;;;;;;;15.48;100.00;99989.25;5013515;28;20049;-43
2023/09/01 04:00:27;;;;;;;53.88;18.08;;;;;;;15.46;100.00;99988.88;5013791;28;20042;-46
2023/09/01 04:02:54;;;;;;;50.85;17.00;;;;;;;15.45;100.00;99985.25;5013342;28;20124;-46
2023/09/01 04:05:21;;;;;;;47.83;16.63;;;;;;;15.43;100.00;99984.03;5011839;28;20050;-44
2023/09/01 04:07:48;;;;;;;47.97;17.83;;;;;;;15.43;100.00;99986.84;5014508;28;20045;-44
2023/09/01 04:10:15;;;;;;;49.78;17.13;;;;;;;15.40;100.00;99993.19;5012848;28;20044;-46
2023/09/01 04:12:42;;;;;;;49.42;18.02;;;;;;;15.39;100.00;99980.44;5011071;28;20058;-45
2023/09/01 04:15:09;;;;;;;40.22;16.52;;;;;;;15.38;100.00;99990.00;5012658;28;20061;-44
2023/09/01 04:17:36;;;;;;;49.35;17.83;;;;;;;15.38;100.00;99992.81;5009276;28;20050;-47
2023/09/01 04:20:06;;;;;;;44.88;16.55;;;;;;;15.36;100.00;99995.97;4992129;28;20037;-44
2023/09/01 04:22:33;;;;;;;48.63;16.73;;;;;;;15.33;100.00;99991.19;5010989;28;20100;-44
2023/09/01 04:25:00;;;;;;;50.13;17.92;;;;;;;15.32;100.00;99983.22;5011493;28;20116;-45
2023/09/01 04:27:27;;;;;;;51.55;17.73;;;;;;;15.29;100.00;99986.78;5008775;28;20046;-45
2023/09/01 04:29:54;;;;;;;56.45;18.02;;;;;;;15.24;100.00;99994.38;5011490;28;20053;-44
2023/09/01 04:32:35;;;;;;;53.53;18.07;;;;;;;15.24;100.00;99988.00;5010193;28;20499;-44
2023/09/01 04:35:02;;;;;;;55.05;17.65;;;;;;;15.23;100.00;99989.97;5009035;28;20054;-43
2023/09/01 04:37:29;;;;;;;51.70;17.92;;;;;;;15.21;100.00;99992.38;5012004;28;20054;-46
2023/09/01 04:39:57;;;;;;;56.00;18.20;;;;;;;15.20;100.00;99990.75;5010618;28;20163;-45
2023/09/01 04:42:24;;;;;;;51.65;17.05;;;;;;;15.22;100.00;100001.53;4995276;28;20041;-45
2023/09/01 04:44:51;;;;;;;46.78;18.17;;;;;;;15.21;100.00;99992.38;5009086;28;20053;-47
2023/09/01 04:47:18;;;;;;;57.03;18.85;;;;;;;15.19;100.00;99989.19;5007516;28;20061;-46
2023/09/01 04:49:45;;;;;;;57.45;18.70;;;;;;;15.20;100.00;99996.34;5010193;28;20042;-43
2023/09/01 04:52:11;;;;;;;53.65;19.30;;;;;;;15.20;100.00;99999.13;5011014;28;20133;-47
2023/09/01 04:54:38;;;;;;;49.25;16.90;;;;;;;15.22;100.00;99998.75;5009766;28;20132;-47
2023/09/01 04:57:05;;;;;;;55.63;18.63;;;;;;;15.22;100.00;99999.53;5006997;28;20050;-45
2023/09/01 04:59:32;;;;;;;52.22;18.50;;;;;;;15.24;100.00;99991.59;4996137;28;20062;-44
2023/09/01 05:01:59;;;;;;;47.70;18.25;;;;;;;15.25;100.00;99998.75;5011566;28;20085;-45
2023/09/01 05:04:27;;;;;;;50.78;18.33;;;;;;;15.25;100.00;99986.78;4994456;28;20400;-44
2023/09/01 05:07:05;;;;;;;46.70;18.05;;;;;;;15.23;100.00;99989.16;5011527;28;20155;-46
2023/09/01 05:10:00;;;;;;;50.38;15.82;;;;;;;15.20;100.00;100001.91;5012332;28;20045;-45
